createdAt,value
2017-04-30T00:00:24.353Z,68.41
2017-04-30T00:01:24.327Z,68.23
2017-04-30T00:02:24.352Z,67.85
2017-04-30T00:03:24.287Z,67.65
2017-04-30T00:04:24.254Z,67.75
2017-04-30T00:05:24.234Z,68.13
2017-04-30T00:06:24.204Z,67.75
2017-04-30T00:07:24.173Z,67.75
2017-04-30T00:08:24.156Z,67.85
2017-04-30T00:09:24.125Z,67.75
2017-04-30T00:10:24.101Z,67.85
2017-04-30T00:11:24.079Z,68.04
2017-04-30T00:12:24.055Z,67.65
2017-04-30T00:13:24.029Z,67.94
2017-04-30T00:14:24.007Z,67.56
2017-04-30T00:15:23.979Z,67.65
2017-04-30T00:16:23.953Z,67.65
2017-04-30T00:17:23.924Z,67.65
2017-04-30T00:18:23.907Z,68.13
2017-04-30T00:19:23.879Z,68.32
2017-04-30T00:20:23.854Z,68.13
2017-04-30T00:21:23.826Z,68.23
2017-04-30T00:22:23.807Z,68.7
2017-04-30T00:23:23.780Z,68.41
2017-04-30T00:24:23.756Z,68.48
2017-04-30T00:25:23.729Z,68.51
2017-04-30T00:26:23.700Z,68.38
2017-04-30T00:27:23.678Z,68.48
2017-04-30T00:28:23.652Z,68.57
2017-04-30T00:29:23.621Z,69.04
2017-04-30T00:30:23.597Z,69.33
2017-04-30T00:31:23.578Z,69.04
2017-04-30T00:32:23.550Z,69.04
2017-04-30T00:33:23.522Z,69.71
2017-04-30T00:34:23.506Z,69.52
2017-04-30T00:35:23.473Z,69.13
2017-04-30T00:36:23.446Z,69.71
2017-04-30T00:37:23.423Z,69.33
2017-04-30T00:38:23.405Z,69.42
2017-04-30T00:39:23.381Z,69.33
2017-04-30T00:40:23.349Z,69.52
2017-04-30T00:41:23.327Z,69.52
2017-04-30T00:42:23.301Z,69.8
2017-04-30T00:43:23.290Z,69.9
2017-04-30T00:44:23.255Z,70.18
2017-04-30T00:45:23.222Z,69.9
2017-04-30T00:46:23.198Z,69.8
2017-04-30T00:47:23.173Z,70.09
2017-04-30T00:48:23.149Z,70.65
2017-04-30T00:49:23.119Z,70.56
2017-04-30T00:50:23.097Z,70.65
2017-04-30T00:51:23.080Z,70.65
2017-04-30T00:52:23.098Z,70.37
2017-04-30T00:53:23.024Z,70.56
2017-04-30T00:54:22.998Z,70.28
2017-04-30T00:55:22.975Z,70.28
2017-04-30T00:56:22.948Z,70.65
2017-04-30T00:57:22.917Z,70.37
2017-04-30T00:58:22.593Z,70.65
2017-04-30T00:59:22.872Z,70.56
2017-04-30T01:00:22.860Z,70.28
2017-04-30T01:01:22.817Z,70.47
2017-04-30T01:02:22.797Z,70.37
2017-04-30T01:03:22.768Z,70.37
2017-04-30T01:04:22.740Z,70.37
2017-04-30T01:05:22.722Z,70.65
2017-04-30T01:06:22.693Z,70.28
2017-04-30T01:07:22.669Z,70.18
2017-04-30T01:08:22.640Z,71.03
2017-04-30T01:09:22.617Z,70.75
2017-04-30T01:10:22.589Z,71.03
2017-04-30T01:11:22.572Z,70.94
2017-04-30T01:12:22.539Z,71.51
2017-04-30T01:13:22.730Z,71.32
2017-04-30T01:14:22.502Z,71.41
2017-04-30T01:15:22.463Z,71.51
2017-04-30T01:16:22.435Z,70.94
2017-04-30T01:17:22.462Z,70.94
2017-04-30T01:18:22.393Z,71.19
2017-04-30T01:19:22.366Z,71.41
2017-04-30T01:20:22.335Z,71.38
2017-04-30T01:21:22.312Z,71.22
2017-04-30T01:22:22.288Z,71.51
2017-04-30T01:23:22.262Z,71.66
2017-04-30T01:24:22.230Z,71.89
2017-04-30T01:25:22.217Z,71.95
2017-04-30T01:26:22.188Z,71.76
2017-04-30T01:27:22.158Z,71.76
2017-04-30T01:28:22.139Z,71.47
2017-04-30T01:29:22.110Z,71.66
2017-04-30T01:30:22.089Z,72.14
2017-04-30T01:31:22.059Z,71.89
2017-04-30T01:32:22.034Z,72.52
2017-04-30T01:33:22.009Z,72.23
2017-04-30T01:34:21.976Z,72.33
2017-04-30T01:35:21.951Z,72.23
2017-04-30T01:36:21.933Z,72.33
2017-04-30T01:37:21.902Z,72.71
2017-04-30T01:38:21.883Z,72.61
2017-04-30T01:39:21.861Z,72.71
2017-04-30T01:40:21.826Z,73.18
2017-04-30T01:41:21.801Z,72.52
2017-04-30T01:42:21.780Z,72.61
2017-04-30T01:43:21.753Z,72.42
2017-04-30T01:44:21.726Z,72.71
2017-04-30T01:45:21.697Z,73.18
2017-04-30T01:46:21.681Z,73.18
2017-04-30T01:47:21.648Z,72.71
2017-04-30T01:48:21.629Z,72.8
2017-04-30T01:49:21.597Z,72.8
2017-04-30T01:50:21.568Z,72.99
2017-04-30T01:51:21.547Z,72.8
2017-04-30T01:52:21.519Z,72.71
2017-04-30T01:53:21.495Z,72.99
2017-04-30T01:54:21.473Z,73.08
2017-04-30T01:55:21.450Z,72.89
2017-04-30T01:56:21.421Z,72.89
2017-04-30T01:57:21.393Z,73.27
2017-04-30T01:58:21.421Z,73.08
2017-04-30T01:59:21.043Z,73.65
2017-04-30T02:00:21.314Z,73.46
2017-04-30T02:01:21.286Z,73.37
2017-04-30T02:02:21.262Z,73.27
2017-04-30T02:03:21.239Z,73.08
2017-04-30T02:04:21.215Z,73.08
2017-04-30T02:05:21.184Z,73.84
2017-04-30T02:06:21.165Z,74.32
2017-04-30T02:07:21.137Z,74.22
2017-04-30T02:08:21.110Z,74.22
2017-04-30T02:09:21.085Z,73.84
2017-04-30T02:10:21.060Z,74.32
2017-04-30T02:11:21.039Z,73.84
2017-04-30T02:12:21.005Z,74.32
2017-04-30T02:13:20.987Z,73.75
2017-04-30T02:14:20.958Z,74.03
2017-04-30T02:15:20.926Z,74.32
2017-04-30T02:16:20.906Z,74.22
2017-04-30T02:17:21.134Z,73.94
2017-04-30T02:18:20.852Z,73.94
2017-04-30T02:19:20.825Z,74.32
2017-04-30T02:20:20.799Z,74.32
2017-04-30T02:21:20.778Z,74.32
2017-04-30T02:22:20.798Z,74.51
2017-04-30T02:23:20.723Z,74.41
2017-04-30T02:24:20.705Z,74.51
2017-04-30T02:25:20.668Z,74.98
2017-04-30T02:26:20.645Z,74.79
2017-04-30T02:27:20.619Z,74.51
2017-04-30T02:28:20.593Z,74.98
2017-04-30T02:29:20.566Z,74.79
2017-04-30T02:30:20.242Z,74.69
2017-04-30T02:31:20.555Z,74.88
2017-04-30T02:32:20.489Z,75.26
2017-04-30T02:33:20.464Z,74.98
2017-04-30T02:34:20.440Z,74.98
2017-04-30T02:35:20.415Z,74.79
2017-04-30T02:36:20.394Z,74.79
2017-04-30T02:37:20.359Z,74.6
2017-04-30T02:38:20.343Z,74.98
2017-04-30T02:39:20.362Z,74.98
2017-04-30T02:40:20.284Z,75.07
2017-04-30T02:41:20.254Z,74.79
2017-04-30T02:42:20.232Z,74.98
2017-04-30T02:43:20.206Z,74.88
2017-04-30T02:44:20.180Z,75.07
2017-04-30T02:45:20.154Z,74.79
2017-04-30T02:46:20.125Z,74.79
2017-04-30T02:47:20.111Z,74.69
2017-04-30T02:48:20.078Z,74.69
2017-04-30T02:49:20.057Z,75.17
2017-04-30T02:50:20.026Z,74.98
2017-04-30T02:51:20.001Z,75.07
2017-04-30T02:52:19.970Z,75.55
2017-04-30T02:53:19.946Z,75.26
2017-04-30T02:54:19.923Z,75.26
2017-04-30T02:55:19.897Z,75.13
2017-04-30T02:56:19.870Z,75.32
2017-04-30T02:57:19.842Z,75.13
2017-04-30T02:58:19.863Z,75.17
2017-04-30T02:59:19.793Z,75.6
2017-04-30T03:00:19.767Z,75.79
2017-04-30T03:01:19.787Z,75.79
2017-04-30T03:02:19.715Z,76.03
2017-04-30T03:03:19.687Z,76.03
2017-04-30T03:04:19.663Z,75.7
2017-04-30T03:05:19.331Z,75.6
2017-04-30T03:06:19.612Z,76.08
2017-04-30T03:07:19.582Z,75.6
2017-04-30T03:08:19.569Z,76.27
2017-04-30T03:09:19.531Z,76.17
2017-04-30T03:10:19.504Z,76.08
2017-04-30T03:11:19.477Z,76.17
2017-04-30T03:12:19.456Z,75.89
2017-04-30T03:13:19.474Z,76.08
2017-04-30T03:14:19.658Z,76.27
2017-04-30T03:15:19.077Z,76.46
2017-04-30T03:16:19.593Z,76.55
2017-04-30T03:17:19.326Z,76.65
2017-04-30T03:18:19.300Z,76.74
2017-04-30T03:19:19.270Z,76.55
2017-04-30T03:21:19.218Z,76.46
2017-04-30T03:22:19.231Z,76.27
2017-04-30T03:23:18.869Z,75.98
2017-04-30T03:24:19.142Z,76.46
2017-04-30T03:25:19.164Z,76.65
2017-04-30T03:26:19.093Z,76.74
2017-04-30T03:27:19.064Z,75.89
2017-04-30T03:28:19.037Z,76.36
2017-04-30T03:29:19.012Z,76.36
2017-04-30T03:30:18.982Z,76.17
2017-04-30T03:31:18.957Z,76.55
2017-04-30T03:32:18.936Z,76.36
2017-04-30T03:33:18.911Z,76.08
2017-04-30T03:34:18.882Z,76.36
2017-04-30T03:35:19.066Z,76.36
2017-04-30T03:36:18.831Z,76.27
2017-04-30T03:37:18.809Z,76.17
2017-04-30T03:38:18.772Z,76.17
2017-04-30T03:39:18.747Z,76.17
2017-04-30T03:40:18.723Z,76.36
2017-04-30T03:41:18.695Z,76.36
2017-04-30T03:42:18.675Z,76.27
2017-04-30T03:43:18.645Z,76.36
2017-04-30T03:44:18.621Z,76.27
2017-04-30T03:45:18.894Z,76.36
2017-04-30T03:46:18.779Z,75.89
2017-04-30T03:47:18.540Z,75.79
2017-04-30T03:48:18.514Z,75.7
2017-04-30T03:49:18.495Z,75.42
2017-04-30T03:50:18.469Z,75.6
2017-04-30T03:51:18.439Z,75.7
2017-04-30T03:52:18.411Z,76.36
2017-04-30T03:53:18.385Z,76.27
2017-04-30T03:54:18.359Z,75.7
2017-04-30T03:55:18.331Z,75.6
2017-04-30T03:56:18.305Z,75.51
2017-04-30T03:57:18.281Z,75.79
2017-04-30T03:58:18.331Z,75.51
2017-04-30T03:59:18.224Z,75.51
2017-04-30T04:00:18.204Z,75.7
2017-04-30T04:01:18.174Z,75.7
2017-04-30T04:02:18.149Z,75.7
2017-04-30T04:03:18.122Z,75.89
2017-04-30T04:04:18.095Z,75.42
2017-04-30T04:05:18.068Z,75.51
2017-04-30T04:06:18.076Z,75.51
2017-04-30T04:07:18.021Z,75.13
2017-04-30T04:08:17.997Z,75.23
2017-04-30T04:09:17.965Z,75.04
2017-04-30T04:10:17.937Z,75.23
2017-04-30T04:11:17.910Z,75.13
2017-04-30T04:12:17.881Z,75.23
2017-04-30T04:13:17.860Z,75.13
2017-04-30T04:14:17.833Z,75.23
2017-04-30T04:15:18.055Z,75.32
2017-04-30T04:16:17.782Z,75.51
2017-04-30T04:17:17.757Z,74.95
2017-04-30T04:18:17.780Z,75.13
2017-04-30T04:19:17.708Z,75.04
2017-04-30T04:20:17.677Z,74.66
2017-04-30T04:21:17.350Z,74.85
2017-04-30T04:22:17.625Z,75.17
2017-04-30T04:23:17.600Z,74.66
2017-04-30T04:24:17.575Z,74.51
2017-04-30T04:25:17.297Z,74.51
2017-04-30T04:26:17.519Z,74.41
2017-04-30T04:27:17.498Z,74.03
2017-04-30T04:28:17.473Z,74.22
2017-04-30T04:29:17.450Z,73.56
2017-04-30T04:30:17.417Z,73.37
2017-04-30T04:31:17.396Z,73.46
2017-04-30T04:32:17.365Z,73.75
2017-04-30T04:33:17.351Z,73.18
2017-04-30T04:34:17.311Z,72.45
2017-04-30T04:35:17.289Z,72.45
2017-04-30T04:36:17.266Z,71.8
2017-04-30T04:37:16.939Z,71.51
2017-04-30T04:38:17.220Z,70.75
2017-04-30T04:39:17.207Z,69.8
2017-04-30T04:40:17.165Z,69.9
2017-04-30T04:41:17.144Z,69.42
2017-04-30T04:42:16.814Z,69.42
2017-04-30T04:43:16.791Z,68.6
2017-04-30T04:44:17.072Z,68.79
2017-04-30T04:45:17.044Z,68.41
2017-04-30T04:46:17.017Z,67.56
2017-04-30T04:47:16.993Z,68.04
2017-04-30T04:48:16.970Z,67.18
2017-04-30T04:49:16.946Z,67.37
2017-04-30T04:50:16.920Z,66.89
2017-04-30T04:51:16.899Z,66.83
2017-04-30T04:52:16.874Z,66.17
2017-04-30T04:53:16.547Z,66.27
2017-04-30T04:54:16.830Z,66.08
2017-04-30T04:55:16.801Z,65.12
2017-04-30T04:56:16.775Z,64.65
2017-04-30T04:57:16.751Z,64.56
2017-04-30T04:58:16.733Z,64.56
2017-04-30T04:59:16.704Z,64.27
2017-04-30T05:00:16.694Z,63.89
2017-04-30T05:01:16.710Z,63.7
2017-04-30T05:02:16.640Z,64.11
2017-04-30T05:03:16.611Z,63.64
2017-04-30T05:04:16.590Z,62.5
2017-04-30T05:05:16.566Z,62.97
2017-04-30T05:06:16.629Z,62.5
2017-04-30T05:07:16.524Z,62.15
2017-04-30T05:08:16.496Z,61.48
2017-04-30T05:09:16.480Z,60.44
2017-04-30T05:10:16.446Z,60.44
2017-04-30T05:11:16.426Z,60.53
2017-04-30T05:12:16.406Z,60.53
2017-04-30T05:13:16.386Z,60.06
2017-04-30T05:14:16.358Z,59.77
2017-04-30T05:15:16.335Z,58.92
2017-04-30T05:16:16.313Z,58.54
2017-04-30T05:17:16.304Z,59.01
2017-04-30T05:18:16.301Z,58.85
2017-04-30T05:19:16.244Z,58.76
2017-04-30T05:20:16.222Z,58.28
2017-04-30T05:21:16.205Z,58.09
2017-04-30T05:22:16.183Z,57.36
2017-04-30T05:23:16.155Z,57.45
2017-04-30T05:24:16.131Z,57.36
2017-04-30T05:25:16.113Z,56.88
2017-04-30T05:26:16.096Z,56.22
2017-04-30T05:27:16.062Z,55.93
2017-04-30T05:28:16.048Z,55.65
2017-04-30T05:29:16.022Z,55.83
2017-04-30T05:30:16.006Z,56.12
2017-04-30T05:31:15.978Z,54.79
2017-04-30T05:32:15.965Z,54.69
2017-04-30T05:33:15.933Z,54.63
2017-04-30T05:34:15.909Z,54.32
2017-04-30T05:35:15.890Z,54.69
2017-04-30T05:36:15.870Z,55.36
2017-04-30T05:37:15.846Z,55.36
2017-04-30T05:38:15.832Z,54.72
2017-04-30T05:39:15.805Z,53.87
2017-04-30T05:40:15.784Z,53.96
2017-04-30T05:41:15.763Z,53.67
2017-04-30T05:42:15.738Z,52.94
2017-04-30T05:43:15.720Z,52.37
2017-04-30T05:44:15.749Z,52.18
2017-04-30T05:45:15.674Z,51.73
2017-04-30T05:46:15.652Z,51.64
2017-04-30T05:47:15.837Z,50.59
2017-04-30T05:48:15.614Z,49.73
2017-04-30T05:49:15.591Z,49.76
2017-04-30T05:50:15.570Z,49.28
2017-04-30T05:51:15.546Z,49.56
2017-04-30T05:52:15.527Z,48.99
2017-04-30T05:53:15.508Z,48.97
2017-04-30T05:54:15.481Z,48.8
2017-04-30T05:55:15.466Z,48.87
2017-04-30T05:56:15.494Z,49.26
2017-04-30T05:57:15.426Z,49.06
2017-04-30T05:58:15.406Z,48.87
2017-04-30T05:59:15.383Z,48.99
2017-04-30T06:00:15.362Z,48.61
2017-04-30T06:01:15.341Z,48.87
2017-04-30T06:02:15.324Z,48.87
2017-04-30T06:03:15.532Z,49.08
2017-04-30T06:04:14.986Z,48.04
2017-04-30T06:05:15.268Z,48.13
2017-04-30T06:06:15.242Z,48.25
2017-04-30T06:07:15.221Z,46.82
2017-04-30T06:08:15.198Z,45.99
2017-04-30T06:09:15.181Z,45.61
2017-04-30T06:10:15.163Z,44.94
2017-04-30T06:11:15.139Z,45.03
2017-04-30T06:12:15.120Z,44.84
2017-04-30T06:13:15.098Z,44.94
2017-04-30T06:14:15.079Z,45.42
2017-04-30T06:15:15.064Z,45.13
2017-04-30T06:16:15.042Z,45.03
2017-04-30T06:17:15.023Z,45.61
2017-04-30T06:18:15.048Z,45.2
2017-04-30T06:19:14.979Z,45.2
2017-04-30T06:20:14.956Z,45.22
2017-04-30T06:21:14.947Z,45.22
2017-04-30T06:22:14.921Z,44.29
2017-04-30T06:23:14.900Z,43.82
2017-04-30T06:24:14.887Z,43.24
2017-04-30T06:25:14.864Z,43.15
2017-04-30T06:26:14.850Z,43.53
2017-04-30T06:27:14.819Z,43.15
2017-04-30T06:28:14.856Z,43.72
2017-04-30T06:29:14.790Z,43.43
2017-04-30T06:30:14.764Z,43.05
2017-04-30T06:31:14.745Z,42.88
2017-04-30T06:32:14.729Z,42.6
2017-04-30T06:33:14.707Z,41.28
2017-04-30T06:34:14.691Z,41.28
2017-04-30T06:35:14.723Z,41.16
2017-04-30T06:36:14.656Z,41.83
2017-04-30T06:37:14.633Z,42.31
2017-04-30T06:38:14.618Z,42.31
2017-04-30T06:39:14.601Z,42.6
2017-04-30T06:40:14.584Z,42.4
2017-04-30T06:41:14.558Z,42.21
2017-04-30T06:42:14.539Z,42.4
2017-04-30T06:43:14.525Z,42.21
2017-04-30T06:44:14.505Z,41.64
2017-04-30T06:45:14.483Z,41.38
2017-04-30T06:46:14.466Z,41.28
2017-04-30T06:47:14.449Z,40.82
2017-04-30T06:48:14.479Z,40.63
2017-04-30T06:49:14.422Z,39.67
2017-04-30T06:50:14.396Z,38.93
2017-04-30T06:51:14.380Z,38.93
2017-04-30T06:52:14.382Z,38.74
2017-04-30T06:53:14.344Z,38.81
2017-04-30T06:54:14.371Z,38.91
2017-04-30T06:55:14.301Z,39.29
2017-04-30T06:56:14.286Z,39.48
2017-04-30T06:57:14.273Z,39.58
2017-04-30T06:58:14.258Z,39.48
2017-04-30T06:59:14.233Z,38.93
2017-04-30T07:00:14.217Z,38.37
2017-04-30T07:01:14.196Z,38.28
2017-04-30T07:02:14.181Z,37.34
2017-04-30T07:03:14.168Z,36.96
2017-04-30T07:04:14.161Z,37.23
2017-04-30T07:05:14.159Z,37.32
2017-04-30T07:06:14.115Z,37.41
2017-04-30T07:07:14.148Z,37.32
2017-04-30T07:08:14.077Z,37.05
2017-04-30T07:09:14.089Z,36.69
2017-04-30T07:10:14.051Z,36.11
2017-04-30T07:11:14.028Z,35.35
2017-04-30T07:12:14.008Z,35.35
2017-04-30T07:13:14.000Z,35.08
2017-04-30T07:14:13.678Z,34.41
2017-04-30T07:15:13.970Z,34.31
2017-04-30T07:16:13.945Z,34.87
2017-04-30T07:17:13.922Z,35.16
2017-04-30T07:18:13.911Z,35.81
2017-04-30T07:19:13.898Z,35.9
2017-04-30T07:20:13.874Z,35.06
2017-04-30T07:21:13.865Z,35.06
2017-04-30T07:22:13.846Z,35.52
2017-04-30T07:23:13.833Z,35.71
2017-04-30T07:24:13.817Z,36.19
2017-04-30T07:25:13.796Z,36.19
2017-04-30T07:26:13.791Z,35.81
2017-04-30T07:27:13.766Z,35.42
2017-04-30T07:28:13.751Z,35.73
2017-04-30T07:29:13.739Z,35.73
2017-04-30T07:30:13.773Z,35.06
2017-04-30T07:31:13.703Z,35.16
2017-04-30T07:32:13.688Z,35.16
2017-04-30T07:33:13.669Z,35.24
2017-04-30T07:34:13.702Z,35.52
2017-04-30T07:35:13.587Z,35.42
2017-04-30T07:36:13.616Z,35.61
2017-04-30T07:37:13.606Z,35.61
2017-04-30T07:38:13.585Z,34.77
2017-04-30T07:39:13.571Z,35.35
2017-04-30T07:40:13.557Z,34.96
2017-04-30T07:41:13.540Z,34.77
2017-04-30T07:42:13.522Z,34.58
2017-04-30T07:43:13.505Z,34.41
2017-04-30T07:44:13.500Z,34.41
2017-04-30T07:45:13.481Z,34.41
2017-04-30T07:46:13.763Z,34.31
2017-04-30T07:47:13.450Z,33.47
2017-04-30T07:48:13.432Z,33.17
2017-04-30T07:49:13.421Z,32.42
2017-04-30T07:50:13.403Z,32.33
2017-04-30T07:51:13.386Z,32.33
2017-04-30T07:52:13.372Z,32.62
2017-04-30T07:53:13.355Z,32.33
2017-04-30T07:54:13.345Z,32.15
2017-04-30T07:55:13.328Z,32.06
2017-04-30T07:56:13.310Z,31.87
2017-04-30T07:57:13.299Z,31.77
2017-04-30T07:58:13.289Z,31.11
2017-04-30T07:59:13.270Z,30.55
2017-04-30T08:00:13.255Z,29.8
2017-04-30T08:01:13.238Z,29.69
2017-04-30T08:02:13.224Z,29.69
2017-04-30T08:03:13.220Z,30.07
2017-04-30T08:04:13.199Z,29.79
2017-04-30T08:05:13.182Z,29.61
2017-04-30T08:06:13.196Z,29.32
2017-04-30T08:07:13.162Z,29.88
2017-04-30T08:08:13.146Z,30.05
2017-04-30T08:09:13.136Z,30.63
2017-04-30T08:10:13.122Z,30.73
2017-04-30T08:11:13.108Z,31.67
2017-04-30T08:12:13.091Z,31.96
2017-04-30T08:13:13.077Z,31.96
2017-04-30T08:14:13.061Z,32.62
2017-04-30T08:15:13.050Z,32.15
2017-04-30T08:16:13.032Z,31.38
2017-04-30T08:17:13.019Z,31.49
2017-04-30T08:18:13.010Z,31.59
2017-04-30T08:19:12.996Z,32.06
2017-04-30T08:20:12.998Z,31.77
2017-04-30T08:21:12.967Z,31.96
2017-04-30T08:22:12.963Z,32.33
2017-04-30T08:23:12.941Z,32.42
2017-04-30T08:24:12.975Z,32.33
2017-04-30T08:25:12.916Z,32.25
2017-04-30T08:26:12.895Z,32.25
2017-04-30T08:27:12.880Z,32.42
2017-04-30T08:28:12.872Z,32.52
2017-04-30T08:29:12.863Z,32.15
2017-04-30T08:30:12.537Z,32.44
2017-04-30T08:31:12.835Z,32.34
2017-04-30T08:32:12.815Z,31.87
2017-04-30T08:33:12.809Z,32.15
2017-04-30T08:34:12.792Z,32.34
2017-04-30T08:35:12.779Z,32.44
2017-04-30T08:36:12.761Z,32.34
2017-04-30T08:37:12.752Z,32.64
2017-04-30T08:38:12.740Z,32.64
2017-04-30T08:39:12.723Z,32.06
2017-04-30T08:40:12.710Z,31.79
2017-04-30T08:41:12.741Z,31.59
2017-04-30T08:42:12.741Z,31.59
2017-04-30T08:43:12.672Z,31.79
2017-04-30T08:44:12.649Z,31.59
2017-04-30T08:45:12.639Z,31.59
2017-04-30T08:46:12.623Z,31.32
2017-04-30T08:47:12.613Z,31.4
2017-04-30T08:48:12.600Z,31.88
2017-04-30T08:49:12.587Z,32.17
2017-04-30T08:50:12.272Z,32.54
2017-04-30T08:51:12.555Z,32.64
2017-04-30T08:52:12.593Z,32.26
2017-04-30T08:53:12.526Z,31.7
2017-04-30T08:54:12.515Z,31.59
2017-04-30T08:55:12.508Z,32.07
2017-04-30T08:56:12.488Z,32.17
2017-04-30T08:57:12.480Z,32.26
2017-04-30T08:58:12.472Z,31.88
2017-04-30T08:59:12.453Z,32.07
2017-04-30T09:00:12.134Z,31.98
2017-04-30T09:01:12.422Z,31.79
2017-04-30T09:02:12.415Z,31.32
2017-04-30T09:03:12.393Z,31.23
2017-04-30T09:04:12.382Z,30.84
2017-04-30T09:05:12.380Z,30.66
2017-04-30T09:06:12.356Z,30.38
2017-04-30T09:07:12.344Z,30.76
2017-04-30T09:08:12.335Z,31.61
2017-04-30T09:09:12.313Z,31.4
2017-04-30T09:10:12.301Z,31.49
2017-04-30T09:11:12.292Z,31.23
2017-04-30T09:12:12.274Z,31.05
2017-04-30T09:13:12.266Z,30.38
2017-04-30T09:14:12.249Z,30.38
2017-04-30T09:15:12.232Z,30.1
2017-04-30T09:16:12.228Z,30.76
2017-04-30T09:17:12.209Z,31.23
2017-04-30T09:18:12.196Z,31.05
2017-04-30T09:19:12.184Z,31.05
2017-04-30T09:20:12.168Z,30.85
2017-04-30T09:21:12.158Z,30.38
2017-04-30T09:22:12.195Z,30.85
2017-04-30T09:23:12.123Z,30.66
2017-04-30T09:24:12.115Z,30.47
2017-04-30T09:25:12.114Z,30.76
2017-04-30T09:26:12.085Z,31.15
2017-04-30T09:27:12.072Z,31.72
2017-04-30T09:28:12.072Z,31.9
2017-04-30T09:29:12.049Z,31.7
2017-04-30T09:30:12.034Z,31.24
2017-04-30T09:31:12.024Z,30.76
2017-04-30T09:32:12.063Z,31.05
2017-04-30T09:33:11.998Z,30.95
2017-04-30T09:34:11.981Z,30.76
2017-04-30T09:35:11.981Z,31.15
2017-04-30T09:36:11.959Z,31.43
2017-04-30T09:37:11.947Z,31.61
2017-04-30T09:38:11.938Z,31.05
2017-04-30T09:39:11.962Z,31.41
2017-04-30T09:40:11.904Z,32.26
2017-04-30T09:41:11.887Z,32.55
2017-04-30T09:42:11.887Z,32.46
2017-04-30T09:43:11.857Z,32.17
2017-04-30T09:44:11.851Z,32.17
2017-04-30T09:45:11.833Z,31.9
2017-04-30T09:46:11.818Z,31.61
2017-04-30T09:47:11.844Z,31.82
2017-04-30T09:48:11.803Z,31.53
2017-04-30T09:49:11.781Z,31.24
2017-04-30T09:50:11.764Z,31.72
2017-04-30T09:51:11.754Z,31.51
2017-04-30T09:52:11.743Z,31.7
2017-04-30T09:53:11.728Z,31.51
2017-04-30T09:54:11.712Z,31.88
2017-04-30T09:55:11.695Z,31.8
2017-04-30T09:56:11.693Z,31.7
2017-04-30T09:57:11.667Z,30.85
2017-04-30T09:58:11.658Z,30.57
2017-04-30T09:59:11.644Z,30.76
2017-04-30T10:00:11.628Z,30.66
2017-04-30T10:01:11.316Z,30.57
2017-04-30T10:02:11.601Z,30.49
2017-04-30T10:03:11.590Z,30.19
2017-04-30T10:04:11.624Z,30.85
2017-04-30T10:05:11.556Z,30.47
2017-04-30T10:06:11.555Z,31.05
2017-04-30T10:07:11.536Z,31.51
2017-04-30T10:08:11.521Z,31.53
2017-04-30T10:09:11.513Z,31.43
2017-04-30T10:10:11.191Z,31.72
2017-04-30T10:11:11.581Z,31.53
2017-04-30T10:12:11.519Z,31.24
2017-04-30T10:13:11.462Z,31.34
2017-04-30T10:14:11.446Z,31.24
2017-04-30T10:15:11.424Z,30.68
2017-04-30T10:16:11.418Z,30.31
2017-04-30T10:17:11.405Z,29.83
2017-04-30T10:18:11.394Z,28.88
2017-04-30T10:19:11.378Z,29.35
2017-04-30T10:20:11.362Z,29.81
2017-04-30T10:21:11.351Z,30.77
2017-04-30T10:22:11.337Z,31.43
2017-04-30T10:23:11.327Z,31.62
2017-04-30T10:24:11.311Z,31.72
2017-04-30T10:25:11.293Z,30.95
2017-04-30T10:26:11.283Z,30.85
2017-04-30T10:27:11.276Z,30.57
2017-04-30T10:28:11.260Z,30.29
2017-04-30T10:29:11.245Z,29.83
2017-04-30T10:30:11.233Z,29.73
2017-04-30T10:31:10.921Z,30.39
2017-04-30T10:32:11.250Z,30.58
2017-04-30T10:33:11.193Z,30.76
2017-04-30T10:34:11.237Z,31.24
2017-04-30T10:35:10.866Z,31.61
2017-04-30T10:36:11.155Z,32.26
2017-04-30T10:37:11.140Z,32.26
2017-04-30T10:38:11.131Z,32.44
2017-04-30T10:39:11.112Z,33.4
2017-04-30T10:40:11.100Z,33.48
2017-04-30T10:41:11.101Z,34.25
2017-04-30T10:42:11.074Z,34.34
2017-04-30T10:43:11.054Z,34.14
2017-04-30T10:44:11.045Z,35.1
2017-04-30T10:45:11.024Z,35.48
2017-04-30T10:46:11.005Z,36.22
2017-04-30T10:47:10.999Z,36.8
2017-04-30T10:48:10.979Z,36.98
2017-04-30T10:49:10.957Z,37.07
2017-04-30T10:50:10.942Z,37.09
2017-04-30T10:51:10.929Z,37.26
2017-04-30T10:52:10.912Z,37.36
2017-04-30T10:53:10.886Z,37.26
2017-04-30T10:54:10.874Z,37.16
2017-04-30T10:55:11.052Z,37.74
2017-04-30T10:56:10.833Z,37.36
2017-04-30T10:57:10.823Z,37.36
2017-04-30T10:58:10.797Z,37.38
2017-04-30T10:59:10.783Z,37.18
2017-04-30T11:00:10.759Z,37.09
2017-04-30T11:01:10.742Z,37.18
2017-04-30T11:02:10.722Z,36.9
2017-04-30T11:03:10.708Z,36.71
2017-04-30T11:04:10.685Z,36.71
2017-04-30T11:05:10.666Z,36.61
2017-04-30T11:06:10.646Z,36.69
2017-04-30T11:07:10.634Z,36.79
2017-04-30T11:08:10.608Z,36.88
2017-04-30T11:09:10.588Z,37.16
2017-04-30T11:10:10.576Z,37.26
2017-04-30T11:11:10.541Z,37.36
2017-04-30T11:12:10.522Z,37.74
2017-04-30T11:13:10.511Z,37.55
2017-04-30T11:14:10.540Z,37.55
2017-04-30T11:15:10.472Z,37.66
2017-04-30T11:16:10.449Z,37.66
2017-04-30T11:17:10.428Z,37.38
2017-04-30T11:18:10.412Z,36.9
2017-04-30T11:19:10.391Z,36.99
2017-04-30T11:20:10.372Z,36.99
2017-04-30T11:21:10.351Z,37.36
2017-04-30T11:22:10.327Z,37.65
2017-04-30T11:23:10.313Z,37.65
2017-04-30T11:24:09.985Z,37.65
2017-04-30T11:25:10.267Z,37.74
2017-04-30T11:26:10.270Z,37.84
2017-04-30T11:27:10.232Z,37.74
2017-04-30T11:28:10.233Z,37.84
2017-04-30T11:29:10.189Z,38.22
2017-04-30T11:30:10.170Z,38.12
2017-04-30T11:31:10.152Z,37.95
2017-04-30T11:32:10.135Z,37.93
2017-04-30T11:33:09.812Z,38.05
2017-04-30T11:34:10.101Z,37.45
2017-04-30T11:35:10.077Z,37.84
2017-04-30T11:36:10.052Z,37.93
2017-04-30T11:37:10.031Z,38.14
2017-04-30T11:38:09.709Z,37.95
2017-04-30T11:39:09.993Z,37.38
2017-04-30T11:40:09.979Z,37.18
2017-04-30T11:41:09.955Z,37.47
2017-04-30T11:42:09.981Z,37.57
2017-04-30T11:43:09.608Z,37.38
2017-04-30T11:44:09.894Z,37.28
2017-04-30T11:45:09.875Z,37.09
2017-04-30T11:46:09.858Z,37.38
2017-04-30T11:47:09.534Z,37.26
2017-04-30T11:48:09.873Z,37.84
2017-04-30T11:49:09.851Z,37.65
2017-04-30T11:50:09.775Z,37.65
2017-04-30T11:51:09.750Z,37.84
2017-04-30T11:52:09.731Z,37.93
2017-04-30T11:53:09.730Z,37.84
2017-04-30T11:54:09.693Z,37.84
2017-04-30T11:55:09.671Z,37.74
2017-04-30T11:56:09.662Z,37.65
2017-04-30T11:57:09.639Z,38.03
2017-04-30T11:58:09.614Z,38.22
2017-04-30T11:59:09.586Z,37.93
2017-04-30T12:00:09.569Z,38.32
2017-04-30T12:01:09.551Z,38.32
2017-04-30T12:02:09.536Z,38.41
2017-04-30T12:03:09.509Z,37.93
2017-04-30T12:04:09.484Z,37.45
2017-04-30T12:05:09.471Z,37.26
2017-04-30T12:06:09.452Z,36.59
2017-04-30T12:07:09.433Z,36.98
2017-04-30T12:08:09.410Z,36.88
2017-04-30T12:09:09.385Z,36.69
2017-04-30T12:10:09.419Z,37.16
2017-04-30T12:11:09.049Z,37.36
2017-04-30T12:12:09.326Z,37.07
2017-04-30T12:13:09.301Z,36.59
2017-04-30T12:14:09.281Z,36.02
2017-04-30T12:15:09.267Z,35.75
2017-04-30T12:16:09.241Z,35.36
2017-04-30T12:17:09.265Z,34.79
2017-04-30T12:18:09.211Z,35.08
2017-04-30T12:19:09.187Z,34.96
2017-04-30T12:20:09.172Z,35.06
2017-04-30T12:21:09.152Z,35.35
2017-04-30T12:22:09.181Z,35.44
2017-04-30T12:23:09.099Z,35.36
2017-04-30T12:24:09.080Z,35.27
2017-04-30T12:25:09.056Z,35.44
2017-04-30T12:26:09.037Z,35.35
2017-04-30T12:27:09.021Z,35.53
2017-04-30T12:28:08.999Z,35.53
2017-04-30T12:29:08.991Z,35.73
2017-04-30T12:30:08.690Z,35.46
2017-04-30T12:31:08.941Z,35.73
2017-04-30T12:32:08.915Z,35.46
2017-04-30T12:33:08.896Z,35.94
2017-04-30T12:34:08.871Z,35.46
2017-04-30T12:35:08.856Z,35.08
2017-04-30T12:36:08.881Z,35.17
2017-04-30T12:37:08.812Z,34.61
2017-04-30T12:38:08.797Z,34.31
2017-04-30T12:39:08.773Z,34.31
2017-04-30T12:40:08.750Z,34.33
2017-04-30T12:41:08.729Z,34.22
2017-04-30T12:42:08.409Z,34.31
2017-04-30T12:43:08.692Z,34.14
2017-04-30T12:44:08.671Z,34.31
2017-04-30T12:45:08.652Z,34.31
2017-04-30T12:46:08.632Z,34.12
2017-04-30T12:47:08.607Z,34.41
2017-04-30T12:48:08.589Z,34.41
2017-04-30T12:49:08.569Z,34.79
2017-04-30T12:50:08.589Z,34.59
2017-04-30T12:51:08.526Z,34.69
2017-04-30T12:52:08.203Z,34.69
2017-04-30T12:53:08.488Z,34.88
2017-04-30T12:54:08.665Z,34.69
2017-04-30T12:55:08.448Z,34.88